Time;durP1;ratioP1;P1;durP2;ratioP2;P2;SDS_P1;SDS_P2;PMS_P1;PMS_P2;Temp;Humidity;BMP_temperature;BMP_pressure;BME280_temperature;BME280_humidity;BME280_pressure;Samples;Min_cycle;Max_cycle;Signal;HPM_P1;HPM_P2
2022/09/11 00:00:44;;;;;;;10.10;9.10;;;;;;;-143.84;94.11;45132.84;5068888;28;20510;-72
2022/09/11 00:03:11;;;;;;;13.20;9.17;;;;;;;-143.84;93.99;45106.19;5069364;28;20437;-72
2022/09/11 00:05:40;;;;;;;9.47;7.60;;;;;;;-143.84;93.68;45115.72;5068968;28;20538;-72
2022/09/11 00:08:09;;;;;;;10.23;8.23;;;;;;;-143.84;93.45;45106.19;5068864;28;20466;-72
2022/09/11 00:10:39;;;;;;;9.20;8.23;;;;;;;-143.84;92.89;45113.81;5069292;28;20424;-72
2022/09/11 00:13:06;;;;;;;11.03;9.27;;;;;;;-143.84;92.51;45110.00;5068953;28;20429;-72
2022/09/11 00:15:38;;;;;;;14.20;9.60;;;;;;;-143.84;92.74;45108.09;5069134;28;20989;-72
2022/09/11 00:18:07;;;;;;;15.10;9.97;;;;;;;-143.84;92.31;45108.09;5068664;28;20964;-72
2022/09/11 00:20:37;;;;;;;9.27;8.23;;;;;;;-143.84;92.19;45092.88;5068637;28;20950;-72
2022/09/11 00:23:05;;;;;;;11.30;9.10;;;;;;;-143.84;92.55;45117.63;5068728;28;20432;-72
2022/09/11 00:25:34;;;;;;;11.03;7.97;;;;;;;-143.84;92.64;45129.03;5068652;28;20440;-72
2022/09/11 00:28:01;;;;;;;9.83;7.60;;;;;;;-143.84;92.84;45113.81;5069033;28;20511;-72
2022/09/11 00:30:29;;;;;;;9.87;8.07;;;;;;;-143.84;92.89;45121.44;5068733;28;20522;-72
2022/09/11 00:32:57;;;;;;;13.03;7.70;;;;;;;-143.84;93.45;45111.91;5068767;28;20517;-72
2022/09/11 00:35:26;;;;;;;11.00;9.87;;;;;;;-143.84;93.60;45117.63;5068575;28;20516;-72
2022/09/11 00:37:53;;;;;;;11.13;8.57;;;;;;;-143.84;94.42;45119.53;5068676;28;20449;-72
2022/09/11 00:40:20;;;;;;;9.67;8.77;;;;;;;-143.84;94.57;45098.56;5068329;28;20476;-72
2022/09/11 00:42:52;;;;;;;13.67;8.50;;;;;;;-143.84;94.48;45129.03;5068510;28;20445;-72
2022/09/11 00:45:22;;;;;;;12.67;8.60;;;;;;;-143.84;94.91;45110.00;5068319;28;20981;-72
2022/09/11 00:47:51;;;;;;;9.57;8.57;;;;;;;-143.84;94.56;45129.03;5068557;28;20511;-72
2022/09/11 00:50:22;;;;;;;9.73;8.50;;;;;;;-143.84;94.73;45140.47;5068410;28;20922;-72
2022/09/11 00:52:55;;;;;;;8.60;7.80;;;;;;;-143.84;94.78;45115.72;5068672;28;20908;-72
2022/09/11 00:55:26;;;;;;;10.40;7.53;;;;;;;-143.84;94.64;45104.28;5071465;28;20494;-72
2022/09/11 00:57:58;;;;;;;11.83;7.10;;;;;;;-143.84;93.94;45096.66;5071680;28;20946;-72
2022/09/11 01:00:25;;;;;;;11.53;6.93;;;;;;;-143.84;93.83;45121.44;5071722;28;20441;-72
2022/09/11 01:02:54;;;;;;;8.63;7.40;;;;;;;-143.84;94.13;45121.44;5071781;28;20440;-72
2022/09/11 01:05:25;;;;;;;9.30;7.30;;;;;;;-143.84;94.56;45117.63;5071974;28;20447;-72
2022/09/11 01:07:56;;;;;;;9.00;7.87;;;;;;;-143.84;94.37;45106.19;5071607;28;20946;-72
2022/09/11 01:10:33;;;;;;;9.27;8.27;;;;;;;-143.84;94.29;45113.81;5071899;28;20502;-72
2022/09/11 01:13:09;;;;;;;9.00;7.73;;;;;;;-143.84;93.83;45115.72;5072104;28;20441;-72
2022/09/11 01:15:42;;;;;;;7.87;6.97;;;;;;;-143.84;93.37;45117.63;5071509;28;20437;-72
2022/09/11 01:18:17;;;;;;;14.53;8.37;;;;;;;-143.84;93.37;45113.81;5071382;28;20528;-72
2022/09/11 01:21:04;;;;;;;11.40;7.70;;;;;;;-143.84;93.77;45106.19;5071380;28;20437;-72
2022/09/11 01:24:01;;;;;;;8.97;7.90;;;;;;;-143.84;93.81;45098.56;5071275;28;20436;-72
2022/09/11 01:26:38;;;;;;;9.90;7.40;;;;;;;-143.84;94.27;45117.63;5065921;28;20518;-72
2022/09/11 01:29:14;;;;;;;8.90;8.10;;;;;;;-143.84;94.19;45102.38;5071410;28;20490;-72
2022/09/11 01:31:48;;;;;;;11.23;7.97;;;;;;;-143.84;94.17;45129.03;5071290;28;20436;-72
2022/09/11 01:34:22;;;;;;;9.37;8.27;;;;;;;-143.84;94.01;45130.94;5071508;28;21108;-72
2022/09/11 01:36:57;;;;;;;9.53;8.60;;;;;;;-143.84;93.97;45130.94;5071059;28;20440;-72
2022/09/11 01:39:32;;;;;;;9.87;8.07;;;;;;;-143.84;93.62;45106.19;5070651;28;20976;-72
2022/09/11 01:42:04;;;;;;;9.13;8.17;;;;;;;-143.84;94.06;45159.50;5071076;28;20436;-72
2022/09/11 01:44:36;;;;;;;12.27;9.50;;;;;;;-143.84;93.91;45111.91;5070698;28;20444;-72
2022/09/11 01:47:05;;;;;;;13.13;9.20;;;;;;;-143.84;93.22;45136.66;5070953;28;20444;-72
2022/09/11 01:49:37;;;;;;;10.23;9.33;;;;;;;-143.84;93.09;45127.13;5071152;28;20561;-72
2022/09/11 01:52:08;;;;;;;12.40;10.03;;;;;;;-143.84;93.69;45136.66;5070608;28;20433;-72
2022/09/11 01:54:42;;;;;;;13.33;10.57;;;;;;;-143.84;93.37;45100.47;5070671;28;20494;-71
2022/09/11 01:57:13;;;;;;;21.57;10.90;;;;;;;-143.84;93.42;45098.56;5070783;28;20512;-72
2022/09/11 01:59:47;;;;;;;20.27;11.37;;;;;;;-143.84;93.60;45125.22;5070497;28;20484;-72
2022/09/11 02:02:19;;;;;;;17.53;10.60;;;;;;;-143.84;93.58;45108.09;5070572;28;21008;-72
2022/09/11 02:04:52;;;;;;;16.50;11.17;;;;;;;-143.84;93.84;45110.00;5070339;28;20939;-72
2022/09/11 02:07:23;;;;;;;16.63;11.57;;;;;;;-143.84;94.01;45111.91;5070707;28;20438;-72
2022/09/11 02:09:55;;;;;;;13.30;10.20;;;;;;;-143.84;94.08;45115.72;5070451;28;21013;-72
2022/09/11 02:12:27;;;;;;;13.17;11.87;;;;;;;-143.84;93.78;45132.84;5070428;28;20868;-72
2022/09/11 02:14:56;;;;;;;11.40;10.30;;;;;;;-143.84;93.98;45092.88;5070300;28;20437;-72
2022/09/11 02:17:30;;;;;;;19.70;12.23;;;;;;;-143.84;93.59;45121.44;5070354;28;20433;-72
2022/09/11 02:20:00;;;;;;;16.67;11.93;;;;;;;-143.84;93.53;45144.28;5069783;28;20479;-72
2022/09/11 02:22:27;;;;;;;15.40;11.27;;;;;;;-143.84;93.57;45121.44;5069869;28;20436;-72
2022/09/11 02:24:55;;;;;;;17.83;11.30;;;;;;;-143.84;93.70;45106.19;5070086;28;20440;-72
2022/09/11 02:27:26;;;;;;;14.77;12.00;;;;;;;-143.84;93.81;45119.53;5069949;28;20443;-72
2022/09/11 02:29:55;;;;;;;12.80;11.47;;;;;;;-143.84;93.51;45106.19;5069917;28;20440;-72
2022/09/11 02:32:25;;;;;;;24.53;12.73;;;;;;;-143.84;93.59;45130.94;5069232;28;20522;-68
2022/09/11 02:34:54;;;;;;;13.43;12.13;;;;;;;-143.84;93.36;45113.81;5069366;28;20485;-67
2022/09/11 02:37:35;;;;;;;17.97;11.37;;;;;;;-143.84;93.45;45108.09;5069217;28;20444;-68
2022/09/11 02:40:18;;;;;;;15.67;11.27;;;;;;;-143.84;93.36;45110.00;5068961;28;21013;-67
2022/09/11 02:43:01;;;;;;;14.83;13.03;;;;;;;-143.84;93.16;45113.81;5068452;28;20540;-67
2022/09/11 02:45:42;;;;;;;19.93;12.20;;;;;;;-143.84;93.19;45115.72;5069780;28;20541;-68
2022/09/11 02:48:36;;;;;;;15.93;12.40;;;;;;;-143.84;92.63;45123.34;5069437;28;20444;-67
2022/09/11 02:51:16;;;;;;;14.90;11.97;;;;;;;-143.84;92.79;45123.34;5069440;28;20441;-67
2022/09/11 02:53:51;;;;;;;15.23;11.93;;;;;;;-143.84;92.17;45098.56;5069396;28;20428;-68
2022/09/11 02:56:28;;;;;;;14.40;12.13;;;;;;;-143.84;91.90;45123.34;5069275;28;20444;-67
2022/09/11 02:58:59;;;;;;;15.93;12.50;;;;;;;-143.84;91.94;45089.06;5069387;28;20494;-67
2022/09/11 03:01:26;;;;;;;25.10;12.57;;;;;;;-143.84;91.73;45117.63;5069246;28;20510;-67
2022/09/11 03:03:55;;;;;;;13.40;11.70;;;;;;;-143.84;92.12;45123.34;5069059;28;20441;-67
2022/09/11 03:06:23;;;;;;;16.13;12.50;;;;;;;-143.84;92.25;45115.72;5068915;28;20869;-67
2022/09/11 03:08:51;;;;;;;14.03;11.83;;;;;;;-143.84;91.86;45113.81;5069011;28;20453;-68
2022/09/11 03:11:18;;;;;;;12.93;11.53;;;;;;;-143.84;91.83;45094.78;5069146;28;20494;-68
2022/09/11 03:13:46;;;;;;;15.73;12.50;;;;;;;-143.84;91.81;45106.19;5068701;28;20969;-67
2022/09/11 03:16:13;;;;;;;17.43;11.70;;;;;;;-143.84;91.91;45102.38;5068021;28;20445;-68
2022/09/11 03:18:40;;;;;;;18.57;12.80;;;;;;;-143.84;92.08;45140.47;5068596;28;20471;-67
2022/09/11 03:21:10;;;;;;;13.47;12.00;;;;;;;-143.84;91.94;45079.53;5068509;28;20436;-67
2022/09/11 03:23:37;;;;;;;13.73;12.33;;;;;;;-143.84;91.42;45117.63;5068970;28;20441;-67
2022/09/11 03:26:05;;;;;;;21.40;12.40;;;;;;;-143.84;91.52;45115.72;5069215;28;20432;-69
2022/09/11 03:28:32;;;;;;;13.80;12.50;;;;;;;-143.84;91.37;45125.22;5069201;28;20437;-67
2022/09/11 03:31:00;;;;;;;25.13;12.80;;;;;;;-143.84;91.51;45104.28;5068962;28;21043;-67
2022/09/11 03:33:27;;;;;;;20.63;12.70;;;;;;;-143.84;91.37;45102.38;5068860;28;20502;-67
2022/09/11 03:35:54;;;;;;;17.10;14.07;;;;;;;-143.84;91.45;45108.09;5068812;28;21126;-67
2022/09/11 03:38:23;;;;;;;18.30;14.23;;;;;;;-143.84;91.45;45123.34;5068749;28;20892;-67
2022/09/11 03:40:50;;;;;;;15.07;13.57;;;;;;;-143.84;91.24;45098.56;5068730;28;20495;-67
2022/09/11 03:43:18;;;;;;;17.93;13.40;;;;;;;-143.84;91.10;45125.22;5068747;28;20449;-67
2022/09/11 03:45:48;;;;;;;16.47;12.50;;;;;;;-143.84;91.00;45121.44;5068649;28;20465;-67
2022/09/11 03:48:15;;;;;;;14.93;13.27;;;;;;;-143.84;91.17;45132.84;5068692;28;20523;-67
2022/09/11 03:50:43;;;;;;;20.00;13.27;;;;;;;-143.84;91.33;45130.94;5068828;28;20444;-67
2022/09/11 03:53:10;;;;;;;26.30;13.93;;;;;;;-143.84;91.15;45108.09;5068445;28;20510;-67
2022/09/11 03:55:39;;;;;;;19.23;14.07;;;;;;;-143.84;91.56;45094.78;5069053;28;20512;-67
2022/09/11 03:58:08;;;;;;;14.33;12.77;;;;;;;-143.84;91.78;45092.88;5068786;28;21027;-67
2022/09/11 04:00:36;;;;;;;17.93;13.20;;;;;;;-143.84;91.93;45132.84;5068674;28;20480;-67
2022/09/11 04:03:03;;;;;;;18.33;13.27;;;;;;;-143.84;92.23;45121.44;5068677;28;20437;-67
2022/09/11 04:05:30;;;;;;;15.10;13.50;;;;;;;-143.84;92.20;45136.66;5068609;28;20939;-67
2022/09/11 04:07:58;;;;;;;16.40;12.80;;;;;;;-143.84;92.37;45110.00;5068528;28;21160;-67
2022/09/11 04:10:25;;;;;;;17.57;13.60;;;;;;;-143.84;92.14;45136.66;5068485;28;20444;-67
2022/09/11 04:12:54;;;;;;;13.37;12.03;;;;;;;-143.84;92.14;45121.44;5068425;28;20448;-67
2022/09/11 04:15:21;;;;;;;14.40;12.40;;;;;;;-143.84;91.90;45113.81;5068545;28;20460;-67
2022/09/11 04:17:49;;;;;;;16.97;11.80;;;;;;;-143.84;91.61;45115.72;5068470;28;20552;-67
2022/09/11 04:20:16;;;;;;;12.23;10.63;;;;;;;-143.84;90.43;45132.84;5068407;28;20573;-67
2022/09/11 04:22:44;;;;;;;12.40;10.57;;;;;;;-143.84;89.67;45115.72;5067681;28;20888;-67
2022/09/11 04:25:11;;;;;;;18.13;8.37;;;;;;;-143.84;89.04;45117.63;5068165;28;20992;-72
2022/09/11 04:27:38;;;;;;;8.90;8.00;;;;;;;-143.84;88.31;45110.00;5067529;28;20506;-72
2022/09/11 04:30:08;;;;;;;10.00;8.20;;;;;;;-143.84;87.05;45119.53;5088840;28;20871;-71
2022/09/11 04:32:35;;;;;;;9.40;8.43;;;;;;;-143.84;86.63;45102.38;5080181;28;20467;-71
2022/09/11 04:35:03;;;;;;;10.33;7.90;;;;;;;-143.84;86.27;45096.66;5079049;28;21061;-71
2022/09/11 04:37:30;;;;;;;11.70;8.10;;;;;;;-143.84;86.08;45132.84;5092311;28;20436;-72
2022/09/11 04:39:57;;;;;;;11.50;8.73;;;;;;;-143.84;85.51;45121.44;5092183;28;20487;-71
2022/09/11 04:42:25;;;;;;;12.87;8.37;;;;;;;-143.84;85.82;45104.28;5092554;28;20458;-72
2022/09/11 04:44:52;;;;;;;11.93;7.97;;;;;;;-143.84;85.95;45098.56;5092104;28;20444;-71
2022/09/11 04:47:20;;;;;;;10.47;7.90;;;;;;;-143.84;84.02;45108.09;5092380;28;20440;-71
2022/09/11 04:49:48;;;;;;;13.80;8.10;;;;;;;-143.84;83.67;45087.16;5089843;28;20436;-72
2022/09/11 04:52:15;;;;;;;13.93;6.53;;;;;;;-143.84;82.50;45094.78;5071290;28;20520;-72
2022/09/11 04:54:45;;;;;;;6.97;6.20;;;;;;;-143.84;80.23;45100.47;5071590;28;20425;-71
2022/09/11 04:57:13;;;;;;;8.10;6.23;;;;;;;-143.84;79.71;45115.72;5071687;28;20549;-71
2022/09/11 04:59:40;;;;;;;11.93;6.50;;;;;;;-143.84;77.03;45075.72;5071510;28;20476;-71
2022/09/11 05:02:07;;;;;;;6.47;5.93;;;;;;;-143.84;75.38;45068.13;5071522;28;20855;-71
2022/09/11 05:04:36;;;;;;;17.20;6.50;;;;;;;-143.84;73.60;45087.16;5071590;28;20437;-71
2022/09/11 05:07:03;;;;;;;8.43;5.97;;;;;;;-143.84;72.22;45073.81;5071502;28;20441;-71
2022/09/11 05:09:30;;;;;;;6.00;5.50;;;;;;;-143.84;72.01;45085.25;5071033;28;20433;-71
2022/09/11 05:11:57;;;;;;;8.70;5.63;;;;;;;-143.84;71.68;45085.25;5070052;28;20437;-71
2022/09/11 05:14:25;;;;;;;5.93;5.43;;;;;;;-143.84;72.08;45096.66;5071602;28;20433;-71
2022/09/11 05:16:53;;;;;;;9.53;4.97;;;;;;;-143.84;70.66;45083.34;5071350;28;20441;-71
2022/09/11 05:19:21;;;;;;;10.90;4.50;;;;;;;-143.84;69.86;45071.91;5071305;28;20472;-72
2022/09/11 05:21:50;;;;;;;6.90;4.60;;;;;;;-143.84;70.16;45106.19;5071265;28;20470;-72
2022/09/11 05:24:17;;;;;;;9.23;4.90;;;;;;;-143.84;70.03;45083.34;5071246;28;20441;-71
2022/09/11 05:26:44;;;;;;;5.97;4.20;;;;;;;-143.84;69.25;45102.38;5071161;28;20425;-71
2022/09/11 05:29:13;;;;;;;5.93;4.93;;;;;;;-143.84;68.89;45068.13;5071420;28;20441;-70
2022/09/11 05:31:40;;;;;;;5.23;4.70;;;;;;;-143.84;68.60;45077.63;5071794;28;20444;-70
2022/09/11 05:34:08;;;;;;;8.90;4.60;;;;;;;-143.84;68.29;45064.31;5071326;28;20436;-70
2022/09/11 05:36:35;;;;;;;5.70;4.50;;;;;;;-143.84;68.74;45113.81;5071144;28;20529;-70
2022/09/11 05:39:04;;;;;;;5.00;4.23;;;;;;;-143.84;68.36;45079.53;5070352;28;20516;-70
2022/09/11 05:41:31;;;;;;;6.13;4.73;;;;;;;-143.84;67.33;45071.91;5070755;28;20480;-70
2022/09/11 05:43:59;;;;;;;7.63;4.63;;;;;;;-143.84;67.16;45083.34;5071151;28;20467;-70
2022/09/11 05:46:26;;;;;;;4.37;4.07;;;;;;;-143.84;66.53;45106.19;5070861;28;20440;-70
2022/09/11 05:48:53;;;;;;;8.03;4.57;;;;;;;-143.84;65.71;45083.34;5070956;28;20494;-70
2022/09/11 05:51:21;;;;;;;7.00;4.90;;;;;;;-143.84;65.39;45073.81;5070772;28;20876;-70
2022/09/11 05:53:49;;;;;;;7.13;4.70;;;;;;;-143.84;64.90;45052.88;5071000;28;20880;-70
2022/09/11 05:56:19;;;;;;;7.50;4.00;;;;;;;-143.84;64.74;45079.53;5070715;28;20478;-70
2022/09/11 05:58:48;;;;;;;13.93;4.00;;;;;;;-143.84;63.12;45054.78;5070891;28;20437;-70
2022/09/11 06:01:17;;;;;;;4.53;3.70;;;;;;;-143.84;62.29;45052.88;5070947;28;20487;-70
2022/09/11 06:03:46;;;;;;;4.20;3.93;;;;;;;-143.84;63.37;45071.91;5070606;28;20433;-70
2022/09/11 06:06:13;;;;;;;3.93;3.60;;;;;;;-143.84;61.80;45043.34;5070431;28;20516;-70
2022/09/11 06:08:42;;;;;;;5.50;3.63;;;;;;;-143.84;61.39;45039.53;5069930;28;20452;-70
2022/09/11 06:11:12;;;;;;;9.80;4.27;;;;;;;-143.84;61.08;45035.75;5070351;28;20520;-70
2022/09/11 06:13:42;;;;;;;8.73;3.70;;;;;;;-143.84;59.68;45052.88;5070300;28;20527;-70
2022/09/11 06:16:11;;;;;;;4.80;3.33;;;;;;;-143.84;58.89;45054.78;5070405;28;20884;-70
2022/09/11 06:18:38;;;;;;;3.93;3.63;;;;;;;-143.84;57.59;45030.03;5070937;28;20486;-70
2022/09/11 06:21:08;;;;;;;3.87;3.57;;;;;;;-143.84;56.54;45049.06;5070398;28;20500;-70
2022/09/11 06:23:36;;;;;;;5.80;3.83;;;;;;;-143.84;57.50;45049.06;5070631;28;20429;-70
2022/09/11 06:26:04;;;;;;;5.80;4.40;;;;;;;-143.84;56.48;45026.22;5070026;28;20440;-70
2022/09/11 06:28:31;;;;;;;9.20;5.10;;;;;;;-143.84;56.62;45039.53;5070355;28;20439;-70
2022/09/11 06:31:01;;;;;;;4.63;3.83;;;;;;;-143.84;57.64;45041.44;5070246;28;20437;-70
2022/09/11 06:33:32;;;;;;;7.83;4.10;;;;;;;-143.84;58.68;45037.66;5070247;28;20468;-70
2022/09/11 06:36:01;;;;;;;8.03;3.90;;;;;;;-143.84;58.60;45068.13;5069463;28;21037;-70
2022/09/11 06:38:28;;;;;;;9.03;4.90;;;;;;;-143.84;58.52;45045.25;5069547;28;20568;-70
2022/09/11 06:40:55;;;;;;;7.47;4.53;;;;;;;-143.84;58.02;45033.84;5069907;28;20472;-70
2022/09/11 06:43:23;;;;;;;5.93;3.77;;;;;;;-143.84;55.57;45033.84;5070183;28;20447;-70
2022/09/11 06:45:50;;;;;;;7.20;4.53;;;;;;;-143.84;56.67;45030.03;5070316;28;20433;-70
2022/09/11 06:48:19;;;;;;;7.73;4.00;;;;;;;-143.84;55.01;45039.53;5070087;28;20441;-70
2022/09/11 06:50:46;;;;;;;4.27;3.63;;;;;;;-143.84;54.82;45014.78;5069483;28;20514;-70
2022/09/11 06:53:14;;;;;;;12.83;4.03;;;;;;;-143.84;54.25;45014.78;5070424;28;20459;-68
2022/09/11 06:55:42;;;;;;;8.63;3.83;;;;;;;-143.84;49.20;45018.59;5069316;28;20450;-67
2022/09/11 06:58:09;;;;;;;5.43;3.07;;;;;;;-143.84;48.36;45003.38;5069506;28;20441;-68
2022/09/11 07:00:36;;;;;;;14.40;4.00;;;;;;;-143.84;49.34;45018.59;5069566;28;20911;-68
2022/09/11 07:03:04;;;;;;;7.43;3.10;;;;;;;-143.84;49.31;45014.78;5069251;28;20923;-68
2022/09/11 07:05:33;;;;;;;4.43;3.20;;;;;;;-143.84;45.95;45014.78;5069320;28;20441;-68
2022/09/11 07:08:00;;;;;;;3.37;3.03;;;;;;;-143.84;45.95;44997.66;5069438;28;20802;-67
2022/09/11 07:10:27;;;;;;;4.83;3.53;;;;;;;-143.84;46.49;45012.88;5068347;28;20432;-68
2022/09/11 07:12:56;;;;;;;7.60;4.43;;;;;;;-143.84;46.95;45026.22;5068955;28;20864;-67
2022/09/11 07:15:23;;;;;;;10.43;2.87;;;;;;;-143.84;44.79;45022.41;5068841;28;20874;-68
2022/09/11 07:17:51;;;;;;;4.37;3.20;;;;;;;-143.84;45.35;44984.31;5068781;28;20441;-68
2022/09/11 07:20:19;;;;;;;4.10;3.40;;;;;;;-143.84;45.74;44988.13;5069094;28;20888;-67
2022/09/11 07:22:48;;;;;;;3.33;2.70;;;;;;;-143.84;45.30;45014.78;5069200;28;20432;-68
2022/09/11 07:25:16;;;;;;;4.83;2.77;;;;;;;-143.84;45.77;45009.09;5069028;28;20440;-68
2022/09/11 07:27:44;;;;;;;4.93;3.07;;;;;;;-143.84;46.68;44997.66;5069031;28;20456;-67
2022/09/11 07:30:12;;;;;;;3.67;3.37;;;;;;;-143.84;44.21;44995.75;5068599;28;20962;-67
2022/09/11 07:32:40;;;;;;;8.00;2.83;;;;;;;-143.84;43.25;45003.38;5068847;28;20891;-67
2022/09/11 07:35:07;;;;;;;8.33;3.03;;;;;;;-143.84;43.90;44986.22;5068340;28;20441;-67
2022/09/11 07:37:35;;;;;;;7.90;3.57;;;;;;;-143.84;43.89;45012.88;5068723;28;20941;-69
2022/09/11 07:40:03;;;;;;;5.67;3.00;;;;;;;-143.84;43.22;44995.75;5068011;28;20835;-69
2022/09/11 07:42:32;;;;;;;3.57;3.27;;;;;;;-143.84;43.02;45003.38;5069313;28;20441;-69
2022/09/11 07:44:59;;;;;;;3.27;3.03;;;;;;;-143.84;42.49;44993.84;5068770;28;20440;-71
2022/09/11 07:47:27;;;;;;;3.10;2.83;;;;;;;-143.84;42.73;45005.28;5068125;28;20452;-71
2022/09/11 07:49:54;;;;;;;6.83;2.83;;;;;;;-143.84;43.03;45030.03;5068922;28;20433;-71
2022/09/11 07:52:21;;;;;;;12.17;4.07;;;;;;;-143.84;43.01;45009.09;5068388;28;20968;-72
2022/09/11 07:54:50;;;;;;;3.43;2.60;;;;;;;-143.84;42.48;44978.63;5068772;28;20443;-69
2022/09/11 07:57:19;;;;;;;3.33;3.03;;;;;;;-143.84;41.71;44980.53;5069252;28;20445;-68
2022/09/11 07:59:46;;;;;;;14.97;7.20;;;;;;;-143.84;41.20;44978.63;5069312;28;20512;-68
2022/09/11 08:02:13;;;;;;;5.93;3.67;;;;;;;-143.84;40.72;44986.22;5070399;28;20480;-68
2022/09/11 08:04:40;;;;;;;8.70;4.30;;;;;;;-143.84;40.96;44963.38;5072728;28;21028;-68
2022/09/11 08:07:07;;;;;;;4.60;3.00;;;;;;;-143.84;40.78;44925.31;5072693;28;20852;-71
2022/09/11 08:09:34;;;;;;;3.50;3.00;;;;;;;-143.84;40.77;44963.38;5072275;28;20517;-71
2022/09/11 08:12:02;;;;;;;6.13;2.93;;;;;;;-143.84;40.88;44967.19;5072738;28;20452;-71
2022/09/11 08:14:31;;;;;;;3.07;2.77;;;;;;;-143.84;40.04;44953.88;5072325;28;20988;-72
2022/09/11 08:16:59;;;;;;;2.70;2.50;;;;;;;-143.84;39.95;44982.41;5072431;28;20459;-71
2022/09/11 08:19:26;;;;;;;8.60;3.40;;;;;;;-143.84;41.17;45003.38;5070979;28;20444;-72
2022/09/11 08:21:53;;;;;;;9.03;3.37;;;;;;;-143.84;42.22;44965.28;5071162;28;20488;-72
2022/09/11 08:24:20;;;;;;;19.60;6.50;;;;;;;-143.84;40.40;44959.56;5071550;28;20453;-67
2022/09/11 08:26:47;;;;;;;4.87;4.30;;;;;;;-143.84;40.09;44961.47;5071657;28;20464;-67
2022/09/11 08:29:15;;;;;;;5.80;2.70;;;;;;;-143.84;38.62;44919.59;5071819;28;20951;-67
2022/09/11 08:31:44;;;;;;;3.77;3.43;;;;;;;-143.84;38.55;44932.91;5068385;28;20464;-69
2022/09/11 08:34:11;;;;;;;5.27;2.80;;;;;;;-143.84;37.98;44948.16;5071817;28;20487;-68
2022/09/11 08:36:38;;;;;;;6.10;3.10;;;;;;;-143.84;38.16;44923.41;5071636;28;20455;-68
2022/09/11 08:39:05;;;;;;;8.00;2.67;;;;;;;-143.84;37.74;44915.78;5071313;28;20488;-68
2022/09/11 08:41:41;;;;;;;2.50;1.93;;;;;;;-143.84;38.10;44940.53;5071982;28;20480;-68
2022/09/11 08:44:16;;;;;;;2.53;2.30;;;;;;;-143.84;37.49;44925.31;5071893;28;20532;-68
2022/09/11 08:46:48;;;;;;;2.37;2.13;;;;;;;-143.84;36.93;44950.06;5071606;28;20451;-68
2022/09/11 08:49:23;;;;;;;2.20;2.10;;;;;;;-143.84;37.17;44929.09;5071598;28;20961;-68
2022/09/11 08:51:52;;;;;;;3.03;2.83;;;;;;;-143.84;37.64;44921.50;5069137;28;20455;-67
2022/09/11 08:54:26;;;;;;;4.53;2.37;;;;;;;-143.84;36.97;44942.44;5068539;28;20453;-67
2022/09/11 08:57:06;;;;;;;2.50;2.30;;;;;;;-143.84;36.42;44908.16;5065547;28;20539;-70
2022/09/11 08:59:44;;;;;;;7.23;2.30;;;;;;;-143.84;36.25;44944.34;5069570;28;20444;-71
2022/09/11 09:02:31;;;;;;;4.53;2.87;;;;;;;-143.84;36.33;44938.63;5068410;28;20567;-71
2022/09/11 09:05:19;;;;;;;4.40;2.40;;;;;;;-143.84;36.51;44923.41;5071024;28;20455;-72
2022/09/11 09:08:01;;;;;;;6.50;3.07;;;;;;;-143.84;36.48;44913.88;5068953;28;20448;-72
2022/09/11 09:10:42;;;;;;;5.10;2.20;;;;;;;-143.84;36.16;44940.53;5067744;28;20845;-71
2022/09/11 09:13:29;;;;;;;5.27;2.10;;;;;;;-143.84;35.93;44923.41;5068161;28;20967;-67
2022/09/11 09:16:08;;;;;;;5.40;2.87;;;;;;;-143.84;36.19;44908.16;5067802;28;20454;-67
2022/09/11 09:18:41;;;;;;;4.50;4.03;;;;;;;-143.84;36.47;44929.09;5068924;28;20898;-67
2022/09/11 09:21:13;;;;;;;3.73;3.03;;;;;;;-143.84;36.45;44908.16;5066669;28;20512;-67
2022/09/11 09:23:44;;;;;;;18.07;2.60;;;;;;;-143.84;37.80;44927.19;5064556;28;20449;-67
2022/09/11 09:26:16;;;;;;;2.87;2.60;;;;;;;-143.84;37.75;44917.69;5066811;28;20460;-67
2022/09/11 09:28:45;;;;;;;2.20;2.10;;;;;;;-143.84;36.93;44940.53;5068957;28;20461;-67
2022/09/11 09:31:17;;;;;;;3.73;3.43;;;;;;;-143.84;36.93;44919.59;5070391;28;20452;-68
2022/09/11 09:33:51;;;;;;;3.50;2.60;;;;;;;-143.84;37.37;44955.75;5068857;28;20498;-68
2022/09/11 09:36:21;;;;;;;11.20;2.50;;;;;;;-143.84;37.14;44942.44;5069181;28;20820;-67
2022/09/11 09:38:48;;;;;;;3.93;2.60;;;;;;;-143.84;36.42;44938.63;5068091;28;20476;-67
2022/09/11 09:41:51;;;;;;;5.20;2.50;;;;;;;-143.84;37.32;44931.00;5068502;28;21013;-67
2022/09/11 09:44:37;;;;;;;2.70;2.20;;;;;;;-143.84;37.46;44940.53;5063000;28;20872;-68
2022/09/11 09:47:10;;;;;;;3.53;1.90;;;;;;;-143.84;37.20;44938.63;5068726;28;20459;-67
2022/09/11 09:49:40;;;;;;;2.53;2.03;;;;;;;-143.84;37.63;44927.19;5069653;28;20452;-67
2022/09/11 09:52:17;;;;;;;5.50;2.40;;;;;;;-143.84;37.70;44931.00;5070050;28;20452;-67
2022/09/11 09:54:51;;;;;;;3.40;2.13;;;;;;;-143.84;37.86;44959.56;5069352;28;21029;-68
2022/09/11 09:57:19;;;;;;;2.07;1.87;;;;;;;-143.84;36.55;44946.25;5069092;28;20462;-67
2022/09/11 09:59:51;;;;;;;9.50;3.17;;;;;;;-143.84;37.12;44932.91;5068724;28;20463;-68
2022/09/11 10:02:38;;;;;;;10.33;2.10;;;;;;;-143.84;36.10;44938.63;5068056;28;20481;-67
2022/09/11 10:05:19;;;;;;;2.30;2.10;;;;;;;-143.84;36.62;44913.88;5069427;28;20476;-68
2022/09/11 10:07:47;;;;;;;2.57;2.37;;;;;;;-143.84;35.73;44919.59;5068263;28;20790;-67
2022/09/11 10:10:22;;;;;;;8.77;1.60;;;;;;;-143.84;35.49;44925.31;5069576;28;20448;-67
2022/09/11 10:12:50;;;;;;;2.20;1.67;;;;;;;-143.84;35.20;44925.31;5069205;28;20455;-67
2022/09/11 10:15:24;;;;;;;4.40;3.57;;;;;;;-143.84;35.26;44911.97;5068601;28;20563;-67
2022/09/11 10:17:52;;;;;;;4.70;1.80;;;;;;;-143.84;35.86;44940.53;5068902;28;20447;-68
2022/09/11 10:20:30;;;;;;;2.63;1.83;;;;;;;-143.84;35.36;44925.31;5069372;28;20452;-67
2022/09/11 10:23:24;;;;;;;7.90;1.60;;;;;;;-143.84;34.91;44923.41;5066062;28;20522;-67
2022/09/11 10:25:52;;;;;;;2.03;1.50;;;;;;;-143.84;35.22;44898.66;5069497;28;20449;-67
2022/09/11 10:28:27;;;;;;;2.90;1.27;;;;;;;-143.84;35.31;44923.41;5068701;28;20460;-67
2022/09/11 10:30:58;;;;;;;2.30;1.30;;;;;;;-143.84;35.39;44915.78;5065443;28;20452;-67
2022/09/11 10:33:29;;;;;;;3.37;1.27;;;;;;;-143.84;34.83;44934.81;5068896;28;21154;-67
2022/09/11 10:36:00;;;;;;;3.47;3.17;;;;;;;-143.84;34.74;44913.88;5066079;28;20906;-67
2022/09/11 10:38:31;;;;;;;9.40;1.83;;;;;;;-143.84;34.21;44881.50;5065605;28;20525;-67
2022/09/11 10:41:07;;;;;;;6.47;4.37;;;;;;;-143.84;34.74;44910.06;5066426;28;20440;-67
2022/09/11 10:43:42;;;;;;;1.93;1.40;;;;;;;-143.84;34.25;44919.59;5069152;28;20506;-67
2022/09/11 10:46:31;;;;;;;1.77;1.30;;;;;;;-143.84;34.28;44910.06;5069133;28;20436;-67
2022/09/11 10:49:07;;;;;;;1.40;1.30;;;;;;;-143.84;33.92;44919.59;5065512;28;20453;-67
2022/09/11 10:51:38;;;;;;;1.60;1.40;;;;;;;-143.84;32.93;44908.16;5066212;28;20460;-67
2022/09/11 10:54:14;;;;;;;1.50;1.30;;;;;;;-143.84;32.50;44915.78;5068304;28;20460;-67
2022/09/11 10:57:00;;;;;;;2.70;0.90;;;;;;;-143.84;33.15;44904.34;5068817;28;20494;-67
2022/09/11 10:59:38;;;;;;;2.37;1.10;;;;;;;-143.84;32.56;44908.16;5065237;28;20954;-67
2022/09/11 11:02:18;;;;;;;3.97;1.30;;;;;;;-143.84;33.64;44913.88;5065490;28;20573;-67
2022/09/11 11:04:46;;;;;;;7.43;1.20;;;;;;;-143.84;32.98;44921.50;5068392;28;20527;-67
2022/09/11 11:07:28;;;;;;;1.77;1.00;;;;;;;-143.84;33.99;44900.53;5067439;28;20993;-67
2022/09/11 11:10:08;;;;;;;2.87;0.87;;;;;;;-143.84;33.20;44921.50;5067150;28;20457;-67
2022/09/11 11:12:54;;;;;;;2.90;1.00;;;;;;;-143.84;32.90;44885.31;5065943;28;20870;-67
2022/09/11 11:15:36;;;;;;;0.90;0.73;;;;;;;-143.84;32.52;44902.44;5068068;28;20448;-70
2022/09/11 11:18:24;;;;;;;1.10;0.73;;;;;;;-143.84;32.15;44910.06;5067748;28;20445;-70
2022/09/11 11:20:59;;;;;;;1.90;1.00;;;;;;;-143.84;31.77;44925.31;5067296;28;20433;-70
2022/09/11 11:23:50;;;;;;;1.10;0.80;;;;;;;-143.84;32.58;44932.91;5065259;28;20534;-70
2022/09/11 11:26:36;;;;;;;1.37;1.27;;;;;;;-143.84;33.29;44885.31;5067159;28;20445;-70
2022/09/11 11:29:27;;;;;;;3.03;0.80;;;;;;;-143.84;32.00;44911.97;5067020;28;20444;-70